Perham, Minnesota
Current Conditions -  °F | °C
As of 11:52 AM on Thursday 23 Oct 2014 (Local Time) from KADC Reporting Station
Clear Clear  
Wind Chill: 57°   Ceiling: Unl
Heat Index: 57°   Visibility: 10mi
Dew Point: 48°   Wind: 8mph
Humidity: 72%   Direction: 240°WSW
Pressure: 29.95"   Gusts: NA
Location:  46.59°N, 95.57°W
Report Text: KADC 231652Z AUTO 24007KT 10SM CLR 14/09 A2995 RMK AO2
Loading
Personal Weather Stations






























Interactive Weather Map
Tropical Storm Tracking
New forecast layout! Learn more

10-Day Weather Forecast

Advertisements
Track Severe Weather on mobile